Guide — WDE7328 — position and weather

sailwx.info

Track history (hours):
 
Tides and Currents Weather Stations Pressure Air Temp Water Temp Dewpoint Dewpoint Depression Visibility Wind Speed Wind Dir Waves Ship Positions

Guide

Owner: Crowley Marine Services, SEATTLE, WA. More information available from US FCC via Universal Licensing System and Coast Guard Vessel Documentation Center.

Last reported at 2016-May-29 18:34 UTC. Time now 2016-May-29 19:14 UTC.
Position N 47°15' W 122°26'.

Length 34 m; draft 5.1 m.

Type: Tug. MMSI: 366759530.

Date/timePositionNaut miles runAvg speedWind from/ knotsBaromVisibWave heightAir tempDewpointWater temp
2016-May-29 18:34N 47°15' W 122°26'5 5.1
2016-May-29 17:34N 47°20' W 122°26'8 8.4
2016-May-29 16:34N 47°29' W 122°25'8 7.7
2016-May-29 15:34N 47°36' W 122°21'0 0.5
2016-May-29 14:34N 47°35' W 122°21'0 0.0
2016-May-29 13:34N 47°35' W 122°21'0 0.3
2016-May-29 12:34N 47°35' W 122°21'1 0.7
2016-May-29 11:34N 47°36' W 122°21'3 2.7
2016-May-29 10:33N 47°35' W 122°25'1110.6
2016-May-29 09:34N 47°25' W 122°22'9 9.1
2016-May-29 08:33N 47°16' W 122°26'1 0.8
2016-May-29 07:33N 47°15' W 122°26'0 0.0
2016-May-29 06:32N 47°15' W 122°26'0 0.0
2016-May-29 05:33N 47°15' W 122°26'0 0.0
2016-May-29 04:33N 47°15' W 122°26'0 0.0
2016-May-29 03:33N 47°15' W 122°26'0 0.0
2016-May-29 02:34N 47°15' W 122°26'0 0.0
2016-May-29 01:34N 47°15' W 122°26'0 0.0
2016-May-29 00:17N 47°15' W 122°26'0 0.0
2016-May-28 23:33N 47°15' W 122°26'2 1.5
2016-May-28 22:33N 47°17' W 122°25'2 1.7
2016-May-28 21:33N 47°18' W 122°26'6 6.0
2016-May-28 20:34N 47°23' W 122°22'9 8.9
2016-May-28 19:34N 47°32' W 122°25'4 4.2
2016-May-28 18:33N 47°35' W 122°21'0 0.1
2016-May-28 17:34N 47°35' W 122°21'1 0.6
2016-May-28 16:33N 47°35' W 122°21'0 0.0
2016-May-28 15:33N 47°35' W 122°21'0 0.0
2016-May-28 14:33N 47°35' W 122°21'0 0.0
2016-May-28 13:33N 47°35' W 122°21'1 0.5
2016-May-28 12:33N 47°35' W 122°21'1 1.0
2016-May-28 11:34N 47°36' W 122°21'1 0.6
2016-May-28 10:34N 47°36' W 122°21'1 1.1
2016-May-28 09:33N 47°35' W 122°21'0 0.0
2016-May-28 08:33N 47°35' W 122°21'0 0.0
2016-May-28 07:33N 47°35' W 122°21'0 0.0
2016-May-28 06:33N 47°35' W 122°21'0 0.0
2016-May-28 05:33N 47°35' W 122°21'0 0.2
2016-May-28 04:33N 47°35' W 122°21'0 0.0
2016-May-28 03:33N 47°35' W 122°21'0 0.0
2016-May-28 02:33N 47°35' W 122°21'1 0.5
2016-May-28 01:34N 47°35' W 122°21'5 5.2
2016-May-28 00:33N 47°30' W 122°25'9 8.6
2016-May-27 23:34N 47°22' W 122°22'7 7.0
2016-May-27 22:32N 47°15' W 122°26'0 0.0
2016-May-27 21:33N 47°15' W 122°26'0 0.0
2016-May-27 20:34N 47°15' W 122°26'0 0.0
2016-May-27 19:34N 47°15' W 122°26'0 0.0
2016-May-27 18:33N 47°15' W 122°26'0 0.0
2016-May-27 17:33N 47°15' W 122°26'0 0.0
2016-May-27 16:34N 47°15' W 122°26'0 0.0
2016-May-27 15:34N 47°15' W 122°26'0 0.0
2016-May-27 14:34N 47°15' W 122°26'0 0.5
2016-May-27 13:34N 47°16' W 122°26'2 2.2
2016-May-27 12:34N 47°16' W 122°23'1 1.4
2016-May-27 11:34N 47°17' W 122°25'1 1.0
2016-May-27 10:34N 47°16' W 122°24'0 0.1
2016-May-27 09:34N 47°16' W 122°23'1 0.6
2016-May-27 08:33N 47°16' W 122°24'0 0.0
2016-May-27 07:34N 47°16' W 122°24'0 0.0
2016-May-27 06:17N 47°16' W 122°24'0 0.0
2016-May-27 05:30N 47°16' W 122°24'0 0.0
2016-May-27 04:33N 47°16' W 122°24'0 0.0
2016-May-27 03:33N 47°16' W 122°24'0 0.0
2016-May-27 02:33N 47°16' W 122°24'0 0.0
2016-May-27 01:32N 47°16' W 122°24'1 0.6
2016-May-27 00:34N 47°17' W 122°25'2 2.0
2016-May-26 23:33N 47°15' W 122°23'2 2.4
2016-May-26 22:34N 47°15' W 122°26'0 0.0
2016-May-26 21:33N 47°15' W 122°26'0 0.0
2016-May-26 20:33N 47°15' W 122°26'0 0.0
2016-May-26 19:34N 47°15' W 122°26'0 0.0
2016-May-26 18:34N 47°15' W 122°26'0 0.0
2016-May-26 17:34N 47°15' W 122°26'0 0.0
2016-May-26 16:34N 47°15' W 122°26'0 0.0
2016-May-26 15:34N 47°15' W 122°26'0 0.0
2016-May-26 14:34N 47°15' W 122°26'2 1.9
2016-May-26 13:34N 47°16' W 122°23'2 1.7
2016-May-26 12:33N 47°17' W 122°25'2 1.9
2016-May-26 11:34N 47°16' W 122°23'2 1.8
2016-May-26 10:34N 47°17' W 122°25'2 1.6
2016-May-26 09:33N 47°16' W 122°23'1 1.4
2016-May-26 08:33N 47°16' W 122°25'2 1.3
2016-May-26 07:20N 47°18' W 122°26'0 0.0
2016-May-26 06:27N 47°18' W 122°26'0 0.0
2016-May-26 05:33N 47°18' W 122°26'0 0.0
2016-May-26 03:33N 47°18' W 122°26'0 0.0
2016-May-26 02:31N 47°18' W 122°26'1 0.6
2016-May-26 01:33N 47°17' W 122°25'2 2.2
2016-May-26 00:32N 47°16' W 122°23'1 0.8
2016-May-25 23:23N 47°16' W 122°24'0 0.0
2016-May-25 22:19N 47°16' W 122°24'1 1.8
2016-May-25 21:32N 47°15' W 122°23'3 3.1
2016-May-25 20:33N 47°17' W 122°26'2 2.2
2016-May-25 19:34N 47°15' W 122°26'0 0.0
2016-May-25 18:32N 47°15' W 122°26'0 0.0
2016-May-25 17:33N 47°15' W 122°26'3 2.3
2016-May-25 16:26N 47°18' W 122°26'0 0.0
2016-May-25 15:31N 47°18' W 122°26'3 2.6
2016-May-25 14:32N 47°16' W 122°23'1 1.1
2016-May-25 13:33N 47°16' W 122°24'1 1.1
2016-May-25 12:33N 47°16' W 122°23'3 2.6
2016-May-25 11:34N 47°18' W 122°26'0 0.2
2016-May-25 10:33N 47°18' W 122°26'0 0.0
2016-May-25 09:29N 47°18' W 122°26'0 0.0
2016-May-25 08:33N 47°18' W 122°26'0 0.0
2016-May-25 07:33N 47°18' W 122°26'0 0.0
2016-May-25 06:26N 47°18' W 122°26'0 0.0
2016-May-25 04:29N 47°18' W 122°26'5 5.4
2016-May-25 03:34N 47°22' W 122°23'8 7.5
2016-May-25 02:34N 47°30' W 122°26'7 6.6
2016-May-25 01:34N 47°36' W 122°23'2 1.8
2016-May-25 00:34N 47°35' W 122°21'0 0.4
2016-May-24 23:33N 47°35' W 122°21'0 0.0
2016-May-24 22:33N 47°35' W 122°21'0 0.0
2016-May-24 21:33N 47°35' W 122°21'0 0.0
2016-May-24 20:33N 47°35' W 122°21'0 0.0
2016-May-24 19:33N 47°35' W 122°21'0 0.0
2016-May-24 18:33N 47°35' W 122°21'0 0.0
2016-May-24 17:33N 47°35' W 122°21'0 0.3
2016-May-24 16:33N 47°36' W 122°21'4 4.5
2016-May-24 15:33N 47°32' W 122°25'1010.4
2016-May-24 14:33N 47°22' W 122°22'7 6.5
2016-May-24 13:33N 47°16' W 122°23'2 1.7
2016-May-24 12:33N 47°17' W 122°25'0 0.2
2016-May-24 11:33N 47°17' W 122°25'1 1.2
2016-May-24 10:33N 47°16' W 122°23'1 1.3
2016-May-24 09:33N 47°17' W 122°25'1 0.7
2016-May-24 08:20N 47°16' W 122°24'0 0.0
2016-May-24 06:19N 47°16' W 122°24'0 0.0
2016-May-24 05:31N 47°16' W 122°24'0 0.0
2016-May-24 04:32N 47°16' W 122°24'0 0.0
2016-May-24 03:23N 47°16' W 122°24'1 0.5
2016-May-24 01:31N 47°16' W 122°23'2 2.2
2016-May-24 00:33N 47°17' W 122°25'2 2.1
2016-May-23 23:33N 47°16' W 122°23'2 1.8
2016-May-23 22:28N 47°15' W 122°26'0 0.0
2016-May-23 20:33N 47°15' W 122°26'0 0.0
2016-May-23 19:33N 47°15' W 122°26'0 0.0
2016-May-23 18:33N 47°15' W 122°26'0 0.0
2016-May-23 17:33N 47°15' W 122°26'0 0.0
2016-May-23 16:33N 47°15' W 122°26'0 0.0
2016-May-23 15:33N 47°15' W 122°26'0 0.0
2016-May-23 14:33N 47°15' W 122°26'1 0.8
2016-May-23 13:33N 47°16' W 122°26'1 0.7
2016-May-23 12:33N 47°17' W 122°26'1 0.9
2016-May-23 11:33N 47°17' W 122°26'2 1.5
2016-May-23 10:33N 47°16' W 122°25'0 0.0
2016-May-23 09:33N 47°16' W 122°25'0 0.1
2016-May-23 08:33N 47°16' W 122°25'0 0.0
2016-May-23 07:32N 47°16' W 122°25'0 0.0
2016-May-23 06:33N 47°16' W 122°25'0 0.0
2016-May-23 05:33N 47°16' W 122°25'0 0.0
2016-May-23 04:33N 47°16' W 122°25'0 0.0
2016-May-23 03:33N 47°16' W 122°25'1 1.1
2016-May-23 02:33N 47°15' W 122°26'0 0.0
2016-May-23 01:33N 47°15' W 122°26'0 0.0
2016-May-23 00:33N 47°15' W 122°26'0 0.0
2016-May-22 23:33N 47°15' W 122°26'0 0.0
2016-May-22 22:33N 47°15' W 122°26'0 0.0
2016-May-22 21:33N 47°15' W 122°26'0 0.0
2016-May-22 20:33N 47°15' W 122°26'0 0.0
2016-May-22 19:33N 47°15' W 122°26'0 0.0
2016-May-22 18:33N 47°15' W 122°26'0 0.0
2016-May-22 17:33N 47°15' W 122°26'0 0.0
2016-May-22 16:33N 47°15' W 122°26'0 0.0
2016-May-22 15:33N 47°15' W 122°26'0 0.0
2016-May-22 14:33N 47°15' W 122°26'0 0.0
2016-May-22 13:33N 47°15' W 122°26'0 0.0
2016-May-22 12:33N 47°15' W 122°26'0 0.0
2016-May-22 11:33N 47°15' W 122°26'0 0.0
2016-May-22 10:33N 47°15' W 122°26'0 0.0
2016-May-22 09:33N 47°15' W 122°26'0 0.0
2016-May-22 08:33N 47°15' W 122°26'0 0.0
2016-May-22 07:33N 47°15' W 122°26'3 3.2
2016-May-22 06:33N 47°18' W 122°27'3 3.0
2016-May-22 05:33N 47°21' W 122°24'4 3.6
2016-May-22 04:20N 47°16' W 122°24'1 0.9
2016-May-22 03:33N 47°16' W 122°23'2 1.9
2016-May-22 02:33N 47°17' W 122°25'2 2.0
2016-May-22 01:33N 47°16' W 122°23'1 0.4
2016-May-21 23:29N 47°16' W 122°24'0 0.3
2016-May-21 22:33N 47°16' W 122°24'2 1.6
2016-May-21 21:33N 47°18' W 122°26'2 2.3
2016-May-21 20:32N 47°15' W 122°26'0 0.0
2016-May-21 19:33N 47°15' W 122°26'0 0.0
2016-May-21 18:33N 47°15' W 122°26'0 0.0
2016-May-21 17:33N 47°15' W 122°26'0 0.0
2016-May-21 16:33N 47°15' W 122°26'0 0.0
2016-May-21 15:33N 47°15' W 122°26'0 0.0
2016-May-21 14:33N 47°15' W 122°26'0 0.0
2016-May-21 13:33N 47°15' W 122°26'0 0.0
2016-May-21 12:33N 47°15' W 122°26'0 0.0
2016-May-21 11:33N 47°15' W 122°26'0 0.0
2016-May-21 10:33N 47°15' W 122°26'0 0.0
2016-May-21 09:33N 47°15' W 122°26'0 0.0
2016-May-21 08:33N 47°15' W 122°26'0 0.0
2016-May-21 07:33N 47°15' W 122°26'1 1.0
2016-May-21 06:33N 47°16' W 122°25'1 1.0
2016-May-21 05:33N 47°15' W 122°26'0 0.0
2016-May-21 04:33N 47°15' W 122°26'0 0.0
2016-May-21 03:33N 47°15' W 122°26'0 0.0
2016-May-21 02:33N 47°15' W 122°26'0 0.0
2016-May-21 01:33N 47°15' W 122°26'0 0.0
2016-May-21 00:33N 47°15' W 122°26'0 0.0
2016-May-20 23:33N 47°15' W 122°26'0 0.0
2016-May-20 22:33N 47°15' W 122°26'0 0.0
2016-May-20 21:33N 47°15' W 122°26'0 0.0
2016-May-20 20:33N 47°15' W 122°26'0 0.0
2016-May-20 19:33N 47°15' W 122°26'0 0.0
2016-May-20 18:33N 47°15' W 122°26'0 0.0
2016-May-20 17:33N 47°15' W 122°26'0 0.1
2016-May-20 16:33N 47°15' W 122°26'1 1.5
2016-May-20 15:33N 47°17' W 122°25'0 0.4
2016-May-20 14:33N 47°16' W 122°25'0 0.2
2016-May-20 13:33N 47°16' W 122°25'0 0.2
2016-May-20 12:33N 47°16' W 122°25'0 0.4
2016-May-20 11:33N 47°16' W 122°25'2 1.7
2016-May-20 10:30N 47°16' W 122°23'1 0.8
2016-May-20 09:33N 47°16' W 122°24'5 4.8
2016-May-20 08:33N 47°20' W 122°27'8 8.4
2016-May-20 07:33N 47°28' W 122°25'8 7.6
2016-May-20 06:33N 47°36' W 122°22'1 1.2
2016-May-20 05:33N 47°34' W 122°21'2 1.6
2016-May-20 04:33N 47°36' W 122°21'5 4.6
2016-May-20 03:33N 47°33' W 122°25'1111.3
2016-May-20 02:33N 47°21' W 122°23'5 5.3
2016-May-20 01:33N 47°16' W 122°24'1 1.1
2016-May-20 00:33N 47°17' W 122°25'1 1.2
2016-May-19 23:31N 47°16' W 122°24'2 1.8
2016-May-19 22:33N 47°15' W 122°26'0 0.0
2016-May-19 21:33N 47°15' W 122°26'0 0.0
2016-May-19 20:33N 47°15' W 122°26'0 0.0
2016-May-19 19:33N 47°15' W 122°26'  
Track history (hours):
 
Tides and Currents Weather Stations Pressure Air Temp Water Temp Dewpoint Dewpoint Depression Visibility Wind Speed Wind Dir Waves Ship Positions

Guide

Owner: Crowley Marine Services, SEATTLE, WA. More information available from US FCC via Universal Licensing System and Coast Guard Vessel Documentation Center.

Last reported at 2016-May-29 18:34 UTC. Time now 2016-May-29 19:14 UTC.
Position N 47°15' W 122°26'.

Length 34 m; draft 5.1 m.

Type: Tug. MMSI: 366759530.

Date/timePositionNaut miles runAvg speedWind from/ knotsBaromVisibWave heightAir tempDewpointWater temp
2016-May-29 18:34N 47°15' W 122°26'5 5.1
2016-May-29 17:34N 47°20' W 122°26'8 8.4
2016-May-29 16:34N 47°29' W 122°25'8 7.7
2016-May-29 15:34N 47°36' W 122°21'0 0.5
2016-May-29 14:34N 47°35' W 122°21'0 0.0
2016-May-29 13:34N 47°35' W 122°21'0 0.3
2016-May-29 12:34N 47°35' W 122°21'1 0.7
2016-May-29 11:34N 47°36' W 122°21'3 2.7
2016-May-29 10:33N 47°35' W 122°25'1110.6
2016-May-29 09:34N 47°25' W 122°22'9 9.1
2016-May-29 08:33N 47°16' W 122°26'1 0.8
2016-May-29 07:33N 47°15' W 122°26'0 0.0
2016-May-29 06:32N 47°15' W 122°26'0 0.0
2016-May-29 05:33N 47°15' W 122°26'0 0.0
2016-May-29 04:33N 47°15' W 122°26'0 0.0
2016-May-29 03:33N 47°15' W 122°26'0 0.0
2016-May-29 02:34N 47°15' W 122°26'0 0.0
2016-May-29 01:34N 47°15' W 122°26'0 0.0
2016-May-29 00:17N 47°15' W 122°26'0 0.0
2016-May-28 23:33N 47°15' W 122°26'2 1.5
2016-May-28 22:33N 47°17' W 122°25'2 1.7
2016-May-28 21:33N 47°18' W 122°26'6 6.0
2016-May-28 20:34N 47°23' W 122°22'9 8.9
2016-May-28 19:34N 47°32' W 122°25'4 4.2
2016-May-28 18:33N 47°35' W 122°21'0 0.1
2016-May-28 17:34N 47°35' W 122°21'1 0.6
2016-May-28 16:33N 47°35' W 122°21'0 0.0
2016-May-28 15:33N 47°35' W 122°21'0 0.0
2016-May-28 14:33N 47°35' W 122°21'0 0.0
2016-May-28 13:33N 47°35' W 122°21'1 0.5
2016-May-28 12:33N 47°35' W 122°21'1 1.0
2016-May-28 11:34N 47°36' W 122°21'1 0.6
2016-May-28 10:34N 47°36' W 122°21'1 1.1
2016-May-28 09:33N 47°35' W 122°21'0 0.0
2016-May-28 08:33N 47°35' W 122°21'0 0.0
2016-May-28 07:33N 47°35' W 122°21'0 0.0
2016-May-28 06:33N 47°35' W 122°21'0 0.0
2016-May-28 05:33N 47°35' W 122°21'0 0.2
2016-May-28 04:33N 47°35' W 122°21'0 0.0
2016-May-28 03:33N 47°35' W 122°21'0 0.0
2016-May-28 02:33N 47°35' W 122°21'1 0.5
2016-May-28 01:34N 47°35' W 122°21'5 5.2
2016-May-28 00:33N 47°30' W 122°25'9 8.6
2016-May-27 23:34N 47°22' W 122°22'7 7.0
2016-May-27 22:32N 47°15' W 122°26'0 0.0
2016-May-27 21:33N 47°15' W 122°26'0 0.0
2016-May-27 20:34N 47°15' W 122°26'0 0.0
2016-May-27 19:34N 47°15' W 122°26'0 0.0
2016-May-27 18:33N 47°15' W 122°26'0 0.0
2016-May-27 17:33N 47°15' W 122°26'0 0.0
2016-May-27 16:34N 47°15' W 122°26'0 0.0
2016-May-27 15:34N 47°15' W 122°26'0 0.0
2016-May-27 14:34N 47°15' W 122°26'0 0.5
2016-May-27 13:34N 47°16' W 122°26'2 2.2
2016-May-27 12:34N 47°16' W 122°23'1 1.4
2016-May-27 11:34N 47°17' W 122°25'1 1.0
2016-May-27 10:34N 47°16' W 122°24'0 0.1
2016-May-27 09:34N 47°16' W 122°23'1 0.6
2016-May-27 08:33N 47°16' W 122°24'0 0.0
2016-May-27 07:34N 47°16' W 122°24'0 0.0
2016-May-27 06:17N 47°16' W 122°24'0 0.0
2016-May-27 05:30N 47°16' W 122°24'0 0.0
2016-May-27 04:33N 47°16' W 122°24'0 0.0
2016-May-27 03:33N 47°16' W 122°24'0 0.0
2016-May-27 02:33N 47°16' W 122°24'0 0.0
2016-May-27 01:32N 47°16' W 122°24'1 0.6
2016-May-27 00:34N 47°17' W 122°25'2 2.0
2016-May-26 23:33N 47°15' W 122°23'2 2.4
2016-May-26 22:34N 47°15' W 122°26'0 0.0
2016-May-26 21:33N 47°15' W 122°26'0 0.0
2016-May-26 20:33N 47°15' W 122°26'0 0.0
2016-May-26 19:34N 47°15' W 122°26'0 0.0
2016-May-26 18:34N 47°15' W 122°26'0 0.0
2016-May-26 17:34N 47°15' W 122°26'0 0.0
2016-May-26 16:34N 47°15' W 122°26'0 0.0
2016-May-26 15:34N 47°15' W 122°26'0 0.0
2016-May-26 14:34N 47°15' W 122°26'2 1.9
2016-May-26 13:34N 47°16' W 122°23'2 1.7
2016-May-26 12:33N 47°17' W 122°25'2 1.9
2016-May-26 11:34N 47°16' W 122°23'2 1.8
2016-May-26 10:34N 47°17' W 122°25'2 1.6
2016-May-26 09:33N 47°16' W 122°23'1 1.4
2016-May-26 08:33N 47°16' W 122°25'2 1.3
2016-May-26 07:20N 47°18' W 122°26'0 0.0
2016-May-26 06:27N 47°18' W 122°26'0 0.0
2016-May-26 05:33N 47°18' W 122°26'0 0.0
2016-May-26 03:33N 47°18' W 122°26'0 0.0
2016-May-26 02:31N 47°18' W 122°26'1 0.6
2016-May-26 01:33N 47°17' W 122°25'2 2.2
2016-May-26 00:32N 47°16' W 122°23'1 0.8
2016-May-25 23:23N 47°16' W 122°24'0 0.0
2016-May-25 22:19N 47°16' W 122°24'1 1.8
2016-May-25 21:32N 47°15' W 122°23'3 3.1
2016-May-25 20:33N 47°17' W 122°26'2 2.2
2016-May-25 19:34N 47°15' W 122°26'0 0.0
2016-May-25 18:32N 47°15' W 122°26'0 0.0
2016-May-25 17:33N 47°15' W 122°26'3 2.3
2016-May-25 16:26N 47°18' W 122°26'0 0.0
2016-May-25 15:31N 47°18' W 122°26'3 2.6
2016-May-25 14:32N 47°16' W 122°23'1 1.1
2016-May-25 13:33N 47°16' W 122°24'1 1.1
2016-May-25 12:33N 47°16' W 122°23'3 2.6
2016-May-25 11:34N 47°18' W 122°26'0 0.2
2016-May-25 10:33N 47°18' W 122°26'0 0.0
2016-May-25 09:29N 47°18' W 122°26'0 0.0
2016-May-25 08:33N 47°18' W 122°26'0 0.0
2016-May-25 07:33N 47°18' W 122°26'0 0.0
2016-May-25 06:26N 47°18' W 122°26'0 0.0
2016-May-25 04:29N 47°18' W 122°26'5 5.4
2016-May-25 03:34N 47°22' W 122°23'8 7.5
2016-May-25 02:34N 47°30' W 122°26'7 6.6
2016-May-25 01:34N 47°36' W 122°23'2 1.8
2016-May-25 00:34N 47°35' W 122°21'0 0.4
2016-May-24 23:33N 47°35' W 122°21'0 0.0
2016-May-24 22:33N 47°35' W 122°21'0 0.0
2016-May-24 21:33N 47°35' W 122°21'0 0.0
2016-May-24 20:33N 47°35' W 122°21'0 0.0
2016-May-24 19:33N 47°35' W 122°21'0 0.0
2016-May-24 18:33N 47°35' W 122°21'0 0.0
2016-May-24 17:33N 47°35' W 122°21'0 0.3
2016-May-24 16:33N 47°36' W 122°21'4 4.5
2016-May-24 15:33N 47°32' W 122°25'1010.4
2016-May-24 14:33N 47°22' W 122°22'7 6.5
2016-May-24 13:33N 47°16' W 122°23'2 1.7
2016-May-24 12:33N 47°17' W 122°25'0 0.2
2016-May-24 11:33N 47°17' W 122°25'1 1.2
2016-May-24 10:33N 47°16' W 122°23'1 1.3
2016-May-24 09:33N 47°17' W 122°25'1 0.7
2016-May-24 08:20N 47°16' W 122°24'0 0.0
2016-May-24 06:19N 47°16' W 122°24'0 0.0
2016-May-24 05:31N 47°16' W 122°24'0 0.0
2016-May-24 04:32N 47°16' W 122°24'0 0.0
2016-May-24 03:23N 47°16' W 122°24'1 0.5
2016-May-24 01:31N 47°16' W 122°23'2 2.2
2016-May-24 00:33N 47°17' W 122°25'2 2.1
2016-May-23 23:33N 47°16' W 122°23'2 1.8
2016-May-23 22:28N 47°15' W 122°26'0 0.0
2016-May-23 20:33N 47°15' W 122°26'0 0.0
2016-May-23 19:33N 47°15' W 122°26'0 0.0
2016-May-23 18:33N 47°15' W 122°26'0 0.0
2016-May-23 17:33N 47°15' W 122°26'0 0.0
2016-May-23 16:33N 47°15' W 122°26'0 0.0
2016-May-23 15:33N 47°15' W 122°26'0 0.0
2016-May-23 14:33N 47°15' W 122°26'1 0.8
2016-May-23 13:33N 47°16' W 122°26'1 0.7
2016-May-23 12:33N 47°17' W 122°26'1 0.9
2016-May-23 11:33N 47°17' W 122°26'2 1.5
2016-May-23 10:33N 47°16' W 122°25'0 0.0
2016-May-23 09:33N 47°16' W 122°25'0 0.1
2016-May-23 08:33N 47°16' W 122°25'0 0.0
2016-May-23 07:32N 47°16' W 122°25'0 0.0
2016-May-23 06:33N 47°16' W 122°25'0 0.0
2016-May-23 05:33N 47°16' W 122°25'0 0.0
2016-May-23 04:33N 47°16' W 122°25'0 0.0
2016-May-23 03:33N 47°16' W 122°25'1 1.1
2016-May-23 02:33N 47°15' W 122°26'0 0.0
2016-May-23 01:33N 47°15' W 122°26'0 0.0
2016-May-23 00:33N 47°15' W 122°26'0 0.0
2016-May-22 23:33N 47°15' W 122°26'0 0.0
2016-May-22 22:33N 47°15' W 122°26'0 0.0
2016-May-22 21:33N 47°15' W 122°26'0 0.0
2016-May-22 20:33N 47°15' W 122°26'0 0.0
2016-May-22 19:33N 47°15' W 122°26'0 0.0
2016-May-22 18:33N 47°15' W 122°26'0 0.0
2016-May-22 17:33N 47°15' W 122°26'0 0.0
2016-May-22 16:33N 47°15' W 122°26'0 0.0
2016-May-22 15:33N 47°15' W 122°26'0 0.0
2016-May-22 14:33N 47°15' W 122°26'0 0.0
2016-May-22 13:33N 47°15' W 122°26'0 0.0
2016-May-22 12:33N 47°15' W 122°26'0 0.0
2016-May-22 11:33N 47°15' W 122°26'0 0.0
2016-May-22 10:33N 47°15' W 122°26'0 0.0
2016-May-22 09:33N 47°15' W 122°26'0 0.0
2016-May-22 08:33N 47°15' W 122°26'0 0.0
2016-May-22 07:33N 47°15' W 122°26'3 3.2
2016-May-22 06:33N 47°18' W 122°27'3 3.0
2016-May-22 05:33N 47°21' W 122°24'4 3.6
2016-May-22 04:20N 47°16' W 122°24'1 0.9
2016-May-22 03:33N 47°16' W 122°23'2 1.9
2016-May-22 02:33N 47°17' W 122°25'2 2.0
2016-May-22 01:33N 47°16' W 122°23'1 0.4
2016-May-21 23:29N 47°16' W 122°24'0 0.3
2016-May-21 22:33N 47°16' W 122°24'2 1.6
2016-May-21 21:33N 47°18' W 122°26'2 2.3
2016-May-21 20:32N 47°15' W 122°26'0 0.0
2016-May-21 19:33N 47°15' W 122°26'0 0.0
2016-May-21 18:33N 47°15' W 122°26'0 0.0
2016-May-21 17:33N 47°15' W 122°26'0 0.0
2016-May-21 16:33N 47°15' W 122°26'0 0.0
2016-May-21 15:33N 47°15' W 122°26'0 0.0
2016-May-21 14:33N 47°15' W 122°26'0 0.0
2016-May-21 13:33N 47°15' W 122°26'0 0.0
2016-May-21 12:33N 47°15' W 122°26'0 0.0
2016-May-21 11:33N 47°15' W 122°26'0 0.0
2016-May-21 10:33N 47°15' W 122°26'0 0.0
2016-May-21 09:33N 47°15' W 122°26'0 0.0
2016-May-21 08:33N 47°15' W 122°26'0 0.0
2016-May-21 07:33N 47°15' W 122°26'1 1.0
2016-May-21 06:33N 47°16' W 122°25'1 1.0
2016-May-21 05:33N 47°15' W 122°26'0 0.0
2016-May-21 04:33N 47°15' W 122°26'0 0.0
2016-May-21 03:33N 47°15' W 122°26'0 0.0
2016-May-21 02:33N 47°15' W 122°26'0 0.0
2016-May-21 01:33N 47°15' W 122°26'0 0.0
2016-May-21 00:33N 47°15' W 122°26'0 0.0
2016-May-20 23:33N 47°15' W 122°26'0 0.0
2016-May-20 22:33N 47°15' W 122°26'0 0.0
2016-May-20 21:33N 47°15' W 122°26'0 0.0
2016-May-20 20:33N 47°15' W 122°26'0 0.0
2016-May-20 19:33N 47°15' W 122°26'0 0.0
2016-May-20 18:33N 47°15' W 122°26'0 0.0
2016-May-20 17:33N 47°15' W 122°26'0 0.1
2016-May-20 16:33N 47°15' W 122°26'1 1.5
2016-May-20 15:33N 47°17' W 122°25'0 0.4
2016-May-20 14:33N 47°16' W 122°25'0 0.2
2016-May-20 13:33N 47°16' W 122°25'0 0.2
2016-May-20 12:33N 47°16' W 122°25'0 0.4
2016-May-20 11:33N 47°16' W 122°25'2 1.7
2016-May-20 10:30N 47°16' W 122°23'1 0.8
2016-May-20 09:33N 47°16' W 122°24'5 4.8
2016-May-20 08:33N 47°20' W 122°27'8 8.4
2016-May-20 07:33N 47°28' W 122°25'8 7.6
2016-May-20 06:33N 47°36' W 122°22'1 1.2
2016-May-20 05:33N 47°34' W 122°21'2 1.6
2016-May-20 04:33N 47°36' W 122°21'5 4.6
2016-May-20 03:33N 47°33' W 122°25'1111.3
2016-May-20 02:33N 47°21' W 122°23'5 5.3
2016-May-20 01:33N 47°16' W 122°24'1 1.1
2016-May-20 00:33N 47°17' W 122°25'1 1.2
2016-May-19 23:31N 47°16' W 122°24'2 1.8
2016-May-19 22:33N 47°15' W 122°26'0 0.0
2016-May-19 21:33N 47°15' W 122°26'0 0.0
2016-May-19 20:33N 47°15' W 122°26'0 0.0
2016-May-19 19:33N 47°15' W 122°26'  

Dump ship's entire track history